Decoded Metar for LFMH (ST.-ETIENNE in FRANCE) (IATA:EBU) | Meteo·Mobile Aviation Weather
aviador You're here:

LFMH Decoded Metar

ST.-ETIENNE in FRANCE
Report Time2018-08-21 15:30:00
UTC Time2018-08-21 16:06:04
Flight Rules vfr VFR
Wind320° at 05 kt
W.Decomp.*RWY 36: 3.8 kt HW 3.3 kt LCW
W.Rank320° ranks 10
Current wind is below 320° avg. (5.9)
Visibility9999 m
Phenomena:N/A
Clouds:N/A
Expected CloudBase > 6,000 ft AGL from Temp-Dew spread
CeilingNone
Temp31°C (ISA +19)
Dew Point16°C (40% RH)
Heat Index30.9°C
QNH1017 hPa
Density Alt3,556 ft
Elevation1,319 ft
Report Wrong Elevation
Raw Report
LFMH 211530Z AUTO 32005KT 250V360 CAVOK 31/16 Q1017 TEMPO
FEW080CB=

Extra information for LFMH:More info

Metar Taf Metar & Taf Last 4 Metars F.Rules Stats Wind Profile Meteogram Temp Stats Airport Information Weather charts Add Link Nearby VenuesMetar ALERT Operation Metar Decoded Social comments